Details From PAGS - GUSTAVUS
To PAGY - SKAGWAY
Flight Number -
Tags decoded
Created
Modified
Stats Distance 63 nm / 117 km
Max Altitude 0 ft / 0 m
Waypoints 2
Social Downloads 2
Likes 0
Share VATSIM

Download

Looking for another format? Having issues loading an existing format? Contact us
Advertisement - Login to hide

Notes

Requested: PAGS PAGY

Route

PAGS PAGY

ID Type Via Altitude Latitude Longitude Leg Dist Tot Dist Heading (true) Name
O PAGS APT - 0 ft / 0 m 58.42469˚ -135.70896˚ - 0 nm - GUSTAVUS
O PAGY APT - 0 ft / 0 m 59.46006˚ -135.31566˚ 63 nm 63 nm 11° / 11° SKAGWAY

Altitude Profile

Advertisement - Login to hide

PAGS

Details ICAO PAGS (GST)
Name GUSTAVUS
Region USA (Alaska)
Timezone America/Juneau (UTC-9.0)
Stats Elevation 34 ft / 10 m (AMSL)
Location 58.424690° -135.708964°
Runways 2
Magnetic Variation 19.050° E

METAR

PAGS 170156Z AUTO 11004KT 10SM BKN025 BKN038 03/02 A2948 RMK AO2 SLP982 T00330022

Decode

TAF

PAGS 170203Z 1702/1724 14006KT P6SM -SHRA SCT012 OVC025 FM170400 21008G16KT P6SM -SHRA BKN025 OVC035 FM170600 15007KT P6SM -SHRA SCT025 OVC035 FM171800 15008KT P6SM -SHRA BKN025 OVC035 AMD LTD TO CLD VIS AND WIND

Decode

Departure Runways

ID Width Length Bearing (true) Bearing (mag) Surface Threshold Offset Overrun Length
02 60 ft / 18 m 3,003 ft / 915 m 40.96° 21.91° Asphalt 0 ft / 0 m 0 ft / 0 m
11 150 ft / 46 m 6,704 ft / 2,044 m 135.06° 116.01° Asphalt 0 ft / 0 m 0 ft / 0 m
20 60 ft / 18 m 3,003 ft / 915 m 220.97° 201.92° Asphalt 0 ft / 0 m 0 ft / 0 m
29 150 ft / 46 m 6,704 ft / 2,044 m 315.08° 296.03° Asphalt 0 ft / 0 m 0 ft / 0 m

PAGY

Details ICAO PAGY (SGY)
Name SKAGWAY
Region USA (Alaska)
Timezone America/Juneau (UTC-9.0)
Stats Elevation 44 ft / 13 m (AMSL)
Location 59.460062° -135.315661°
Runways 1
Magnetic Variation 19.347° E

METAR

PAGY 170153Z AUTO 21011G20KT 5SM BR BKN014 BKN031 OVC110 04/03 A2940 RMK AO2 PK WND 22026/0054 RAE0058 SLP957 P0000 T00440033 TSNO

Decode

TAF

TAF PAGY 162331Z 1700/1724 20012G22KT P6SM -SHRA FEW015 OVC045 FM170300 21026G38KT P6SM VCSH SCT025 OVC060 FM171200 21020G30KT P6SM VCSH OVC060 AMD LTD TO CLD VIS AND WIND

Decode

Destination Runways

ID Width Length Bearing (true) Bearing (mag) Surface Threshold Offset Overrun Length
02 75 ft / 23 m 3,542 ft / 1,080 m 43.94° 24.59° Asphalt 0 ft / 0 m 299 ft / 91 m
20 75 ft / 23 m 3,542 ft / 1,080 m 223.95° 204.60° Asphalt 0 ft / 0 m 299 ft / 91 m